Time;durP1;ratioP1;P1;durP2;ratioP2;P2;SDS_P1;SDS_P2;PMS_P1;PMS_P2;Temp;Humidity;BMP_temperature;BMP_pressure;BME280_temperature;BME280_humidity;BME280_pressure;Samples;Min_cycle;Max_cycle;Signal;HPM_P1;HPM_P2
2022/03/01 00:01:25;;;;;;;9.88;4.10;;;4.20;95.10;;;4.02;58.81;102282.78;5186008;28;20054;-88
2022/03/01 00:03:57;;;;;;;10.38;4.13;;;4.20;94.30;;;4.08;57.90;102283.31;5185840;28;20057;-87
2022/03/01 00:06:30;;;;;;;9.63;4.35;;;4.30;93.20;;;4.12;57.55;102274.16;5187018;28;20105;-87
2022/03/01 00:09:02;;;;;;;13.23;4.75;;;4.40;92.80;;;4.24;57.46;102269.13;5188786;28;20079;-87
2022/03/01 00:11:35;;;;;;;9.80;4.95;;;4.40;92.70;;;4.28;57.05;102266.00;5191401;28;20054;-83
2022/03/01 00:14:08;;;;;;;10.85;5.03;;;4.50;92.30;;;4.30;56.83;102262.81;5190656;28;20069;-86
2022/03/01 00:16:40;;;;;;;12.75;5.15;;;4.60;92.10;;;4.27;56.16;102259.94;5190370;28;20046;-86
2022/03/01 00:19:11;;;;;;;9.98;4.35;;;4.60;91.80;;;4.38;56.22;102268.59;5192744;28;20064;-86
2022/03/01 00:21:45;;;;;;;11.73;4.30;;;4.60;91.60;;;4.46;56.52;102266.63;5192327;28;20050;-85
2022/03/01 00:24:17;;;;;;;11.43;5.10;;;4.70;92.10;;;4.40;56.37;102272.19;5187724;28;20057;-87
2022/03/01 00:26:49;;;;;;;12.73;4.97;;;4.60;91.70;;;4.42;56.85;102264.56;5188593;28;20049;-85
2022/03/01 00:29:21;;;;;;;11.88;4.97;;;4.60;92.30;;;4.35;57.14;102258.00;5183158;28;20054;-85
2022/03/01 00:31:53;;;;;;;10.73;4.45;;;4.60;92.70;;;4.33;57.79;102264.72;5186910;28;20052;-89
2022/03/01 00:34:25;;;;;;;12.35;4.72;;;4.50;93.30;;;4.26;57.73;102270.16;5192497;28;20056;-87
2022/03/01 00:36:59;;;;;;;12.13;4.85;;;4.40;93.30;;;4.18;57.98;102263.47;5191461;28;20057;-86
2022/03/01 00:39:31;;;;;;;11.40;5.22;;;4.40;93.60;;;4.09;58.47;102264.47;5195527;28;20052;-87
2022/03/01 00:42:04;;;;;;;10.10;4.60;;;4.30;94.30;;;4.04;59.18;102267.44;5196083;28;20133;-88
2022/03/01 00:44:36;;;;;;;12.50;4.50;;;4.20;94.80;;;3.96;59.61;102283.94;5196499;28;20053;-87
2022/03/01 00:47:09;;;;;;;12.60;4.78;;;4.10;95.30;;;3.89;59.83;102274.78;5195497;28;20069;-85
2022/03/01 00:49:41;;;;;;;10.45;4.55;;;4.10;95.80;;;3.73;60.24;102251.06;5196431;28;20056;-85
2022/03/01 00:52:14;;;;;;;10.80;4.35;;;4.00;96.30;;;3.75;60.70;102272.72;5196614;28;20046;-85
2022/03/01 00:54:46;;;;;;;11.35;3.92;;;3.90;96.50;;;3.67;60.76;102271.16;5192945;28;20056;-87
2022/03/01 00:57:18;;;;;;;11.10;4.85;;;3.90;96.80;;;3.64;61.26;102273.47;5190159;28;20038;-87
2022/03/01 00:59:50;;;;;;;12.13;4.47;;;3.80;97.20;;;3.60;61.50;102277.47;5193483;28;20126;-86
2022/03/01 01:02:22;;;;;;;11.27;4.65;;;3.80;97.50;;;3.43;61.32;102255.38;5197127;28;20050;-86
2022/03/01 01:04:54;;;;;;;9.27;4.30;;;3.80;97.70;;;3.53;61.45;102268.31;5196925;28;20496;-85
2022/03/01 01:07:27;;;;;;;10.98;4.82;;;3.70;97.70;;;3.52;60.65;102266.50;5196730;28;20046;-87
2022/03/01 01:09:59;;;;;;;12.13;4.65;;;3.70;96.90;;;3.58;60.19;102267.78;5193147;28;20053;-87
2022/03/01 01:12:32;;;;;;;13.05;5.65;;;3.80;96.50;;;3.62;60.72;102272.44;5189742;28;20045;-87
2022/03/01 01:15:07;;;;;;;12.52;4.88;;;3.80;96.90;;;3.62;60.89;102268.19;5189209;28;20054;-88
2022/03/01 01:17:39;;;;;;;12.60;4.85;;;3.80;97.00;;;3.62;61.07;102277.59;5189114;28;20061;-88
2022/03/01 01:20:11;;;;;;;14.68;5.18;;;3.80;97.20;;;3.58;61.04;102281.56;5196728;28;20045;-85
2022/03/01 01:22:45;;;;;;;9.75;4.47;;;3.80;97.40;;;3.51;61.44;102280.13;5197710;28;20050;-85
2022/03/01 01:25:20;;;;;;;10.60;4.63;;;3.70;97.60;;;3.50;61.39;102283.50;5197528;28;20042;-85
2022/03/01 01:27:55;;;;;;;13.75;5.43;;;3.70;97.50;;;3.46;61.30;102286.59;5196616;28;20407;-85
2022/03/01 01:30:30;;;;;;;13.80;5.13;;;3.70;97.70;;;3.42;61.31;102296.50;5196949;28;20042;-85
2022/03/01 01:33:02;;;;;;;10.80;5.40;;;3.60;97.90;;;3.41;61.63;102295.59;5195345;28;20045;-86
2022/03/01 01:35:36;;;;;;;12.38;5.75;;;3.60;98.00;;;3.40;61.93;102292.91;5194264;28;20427;-85
2022/03/01 01:38:09;;;;;;;12.10;5.20;;;3.60;98.20;;;3.39;61.76;102289.41;5195391;28;20057;-88
2022/03/01 01:40:41;;;;;;;12.80;4.75;;;3.60;98.00;;;3.43;60.89;102285.41;5195670;28;20061;-84
2022/03/01 01:43:13;;;;;;;10.23;4.35;;;3.60;97.70;;;3.43;60.94;102283.72;5196128;28;20054;-85
2022/03/01 01:45:45;;;;;;;12.45;5.05;;;3.60;97.40;;;3.41;60.59;102267.25;5196220;28;20050;-85
2022/03/01 01:48:17;;;;;;;9.07;3.92;;;3.60;97.00;;;3.49;60.27;102291.09;5195746;28;20054;-85
2022/03/01 01:50:49;;;;;;;9.27;4.45;;;3.70;96.80;;;3.52;60.14;102281.97;5196080;28;20049;-85
2022/03/01 01:53:22;;;;;;;9.95;4.50;;;3.70;96.50;;;3.58;59.76;102290.97;5195992;28;20072;-85
2022/03/01 01:55:54;;;;;;;11.32;5.30;;;3.70;96.30;;;3.59;59.44;102279.94;5196406;28;20431;-84
2022/03/01 01:58:26;;;;;;;10.35;4.28;;;3.80;96.10;;;3.66;58.97;102284.84;5195958;28;20050;-86
2022/03/01 02:00:58;;;;;;;11.40;4.43;;;3.90;95.50;;;3.59;58.42;102272.19;5196124;28;20114;-83
2022/03/01 02:03:30;;;;;;;9.00;4.43;;;3.90;94.90;;;3.77;58.57;102289.22;5196407;28;20052;-84
2022/03/01 02:06:02;;;;;;;8.95;4.22;;;4.00;95.10;;;3.76;58.22;102283.16;5196349;28;20128;-85
2022/03/01 02:08:36;;;;;;;11.07;4.93;;;4.00;94.50;;;3.77;58.19;102289.22;5195532;28;20492;-85
2022/03/01 02:11:08;;;;;;;10.38;4.07;;;4.00;94.70;;;3.75;58.06;102280.44;5195968;28;20060;-84
2022/03/01 02:13:40;;;;;;;10.93;5.00;;;4.00;94.50;;;3.74;58.18;102283.81;5196875;28;20058;-87
2022/03/01 02:16:12;;;;;;;10.25;4.30;;;4.00;94.30;;;3.74;57.94;102292.44;5196360;28;20050;-86
2022/03/01 02:18:45;;;;;;;12.05;5.18;;;4.00;94.40;;;3.72;58.23;102295.69;5195699;28;20046;-86
2022/03/01 02:21:19;;;;;;;11.00;4.30;;;4.00;94.50;;;3.67;58.26;102287.53;5195734;28;20054;-85
2022/03/01 02:23:51;;;;;;;9.90;4.10;;;3.90;94.60;;;3.58;58.15;102268.66;5196659;28;20056;-86
2022/03/01 02:26:22;;;;;;;10.73;4.28;;;3.90;94.50;;;3.66;57.71;102282.25;5196773;28;20045;-89
2022/03/01 02:28:54;;;;;;;9.77;5.22;;;3.90;94.10;;;3.70;57.95;102292.03;5197708;28;20416;-86
2022/03/01 02:31:26;;;;;;;9.00;4.07;;;3.90;94.30;;;3.69;57.83;102279.94;5199785;28;20053;-88
2022/03/01 02:33:58;;;;;;;9.93;3.92;;;3.90;94.20;;;3.63;57.63;102281.97;5203441;28;20069;-85
2022/03/01 02:36:32;;;;;;;10.45;4.32;;;3.90;94.30;;;3.65;57.80;102298.47;5194863;28;20151;-85
2022/03/01 02:39:04;;;;;;;10.20;4.32;;;3.90;94.20;;;3.60;58.13;102289.47;5195340;28;20052;-84
2022/03/01 02:41:38;;;;;;;8.77;4.28;;;3.80;94.80;;;3.56;58.17;102285.69;5195643;28;20045;-85
2022/03/01 02:44:11;;;;;;;9.80;4.38;;;3.80;94.40;;;3.54;57.89;102280.41;5195012;28;20046;-85
2022/03/01 02:46:43;;;;;;;11.90;4.55;;;3.80;94.00;;;3.60;57.41;102286.88;5195030;28;20053;-87
2022/03/01 02:49:16;;;;;;;9.55;4.43;;;3.90;93.70;;;3.63;57.54;102285.47;5194578;28;20050;-85
2022/03/01 02:51:49;;;;;;;12.48;4.20;;;3.90;93.70;;;3.66;57.15;102284.84;5194895;28;20060;-86
2022/03/01 02:54:21;;;;;;;10.80;4.97;;;3.90;93.40;;;3.69;57.24;102285.09;5194927;28;20046;-84
2022/03/01 02:56:53;;;;;;;9.73;4.82;;;3.90;93.30;;;3.70;56.69;102286.88;5195502;28;20430;-83
2022/03/01 02:59:25;;;;;;;10.20;4.47;;;4.00;92.80;;;3.71;56.66;102288.69;5195978;28;20053;-85
2022/03/01 03:01:57;;;;;;;11.50;5.25;;;4.00;92.60;;;3.81;56.42;102296.47;5195608;28;20411;-84
2022/03/01 03:04:29;;;;;;;9.27;4.28;;;4.10;92.50;;;3.85;56.16;102298.53;5196399;28;20065;-85
2022/03/01 03:07:04;;;;;;;8.90;4.13;;;4.10;92.20;;;3.83;55.61;102283.69;5195367;28;20062;-85
2022/03/01 03:09:36;;;;;;;10.02;5.10;;;4.10;91.50;;;3.84;55.25;102286.38;5196132;28;20415;-85
2022/03/01 03:12:09;;;;;;;11.80;4.50;;;4.10;91.20;;;3.80;55.30;102284.34;5196775;28;20050;-85
2022/03/01 03:14:41;;;;;;;10.02;4.53;;;4.20;91.00;;;3.88;55.13;102283.31;5194249;28;20053;-86
2022/03/01 03:17:13;;;;;;;10.38;4.57;;;4.20;90.90;;;3.90;54.91;102280.84;5194760;28;20042;-87
2022/03/01 03:19:45;;;;;;;8.55;4.07;;;4.20;90.60;;;3.90;54.97;102286.91;5194502;28;20056;-88
2022/03/01 03:22:19;;;;;;;12.30;4.05;;;4.20;90.50;;;3.91;54.75;102287.81;5195163;28;20149;-88
2022/03/01 03:24:51;;;;;;;9.68;4.53;;;4.20;90.40;;;3.89;54.57;102285.09;5193711;28;20049;-85
2022/03/01 03:27:22;;;;;;;7.82;3.60;;;4.20;90.10;;;3.90;54.83;102286.91;5194469;28;20060;-83
2022/03/01 03:29:54;;;;;;;11.25;4.20;;;4.20;90.30;;;3.90;54.41;102286.00;5194027;28;20057;-85
2022/03/01 03:32:27;;;;;;;10.05;4.45;;;4.30;89.80;;;3.89;54.36;102284.22;5195165;28;20133;-87
2022/03/01 03:35:00;;;;;;;9.35;4.32;;;4.20;89.50;;;3.91;54.32;102283.59;5194357;28;20590;-85
2022/03/01 03:37:33;;;;;;;10.35;4.53;;;4.30;89.70;;;3.89;54.47;102285.09;5193758;28;20053;-85
2022/03/01 03:40:07;;;;;;;10.52;4.43;;;4.30;89.70;;;3.89;54.50;102287.69;5195160;28;20077;-83
2022/03/01 03:42:41;;;;;;;12.43;5.18;;;4.30;90.00;;;3.85;54.63;102282.13;5197957;28;20058;-87
2022/03/01 03:45:14;;;;;;;10.27;4.68;;;4.20;89.80;;;3.79;54.77;102286.00;5197412;28;20054;-84
2022/03/01 03:47:46;;;;;;;9.63;3.85;;;4.20;90.00;;;3.73;54.92;102287.16;5198851;28;20049;-85
2022/03/01 03:50:18;;;;;;;8.98;3.80;;;4.20;89.70;;;3.77;54.58;102284.06;5201370;28;20060;-85
2022/03/01 03:52:51;;;;;;;8.27;4.38;;;4.20;89.70;;;3.72;54.84;102280.22;5200544;28;20050;-85
2022/03/01 03:55:23;;;;;;;8.38;3.92;;;4.10;89.80;;;3.72;54.95;102272.47;5200164;28;20081;-86
2022/03/01 03:57:56;;;;;;;11.18;3.92;;;4.10;90.00;;;3.71;54.90;102275.78;5200405;28;20077;-86
2022/03/01 04:00:28;;;;;;;10.27;4.57;;;4.10;90.10;;;3.66;55.01;102266.78;5200300;28;20050;-85
2022/03/01 04:03:00;;;;;;;12.20;4.40;;;4.10;90.00;;;3.67;55.06;102260.84;5199637;28;20052;-85
2022/03/01 04:05:32;;;;;;;11.38;4.15;;;4.10;90.10;;;3.66;54.97;102253.88;5199026;28;20052;-86
2022/03/01 04:08:07;;;;;;;12.63;4.35;;;4.00;90.30;;;3.64;54.68;102235.69;5201953;28;20049;-84
2022/03/01 04:10:39;;;;;;;10.05;4.38;;;4.00;90.10;;;3.68;54.91;102244.59;5202487;28;20056;-85
2022/03/01 04:13:11;;;;;;;13.88;4.88;;;4.10;90.30;;;3.72;54.78;102249.25;5196624;28;20046;-82
2022/03/01 04:15:43;;;;;;;12.57;5.47;;;4.10;90.20;;;3.68;55.05;102252.34;5195937;28;20050;-84
2022/03/01 04:18:15;;;;;;;9.30;4.28;;;4.00;90.30;;;3.71;55.18;102248.31;5195194;28;20050;-84
2022/03/01 04:20:47;;;;;;;11.10;4.63;;;4.00;90.30;;;3.71;55.06;102244.84;5197082;28;20056;-85
2022/03/01 04:23:21;;;;;;;9.57;4.10;;;4.00;90.30;;;3.56;55.36;102233.22;5200480;28;20069;-84
2022/03/01 04:25:52;;;;;;;11.10;4.55;;;4.00;90.50;;;3.66;55.45;102251.31;5200276;28;20107;-84
2022/03/01 04:28:24;;;;;;;9.15;4.38;;;4.00;90.40;;;3.61;55.34;102253.47;5200453;28;20054;-84
2022/03/01 04:30:56;;;;;;;9.00;4.53;;;4.00;90.40;;;3.59;54.99;102256.72;5200495;28;20058;-86
2022/03/01 04:33:28;;;;;;;11.68;4.45;;;4.00;90.20;;;3.60;55.00;102248.19;5201716;28;20049;-86
2022/03/01 04:36:02;;;;;;;14.30;5.03;;;4.00;90.40;;;3.56;55.08;102249.59;5201990;28;20202;-84
2022/03/01 04:38:37;;;;;;;11.18;4.97;;;4.00;90.30;;;3.56;55.17;102259.00;5202457;28;20145;-86
2022/03/01 04:41:10;;;;;;;10.90;4.50;;;3.90;90.30;;;3.51;55.39;102250.88;5201625;28;20316;-84
2022/03/01 04:43:42;;;;;;;11.55;5.00;;;3.90;90.20;;;3.46;55.47;102250.50;5202644;28;20053;-85
2022/03/01 04:46:18;;;;;;;9.57;4.25;;;3.90;90.30;;;3.51;55.59;102249.19;5200274;28;20042;-85
2022/03/01 04:48:50;;;;;;;11.20;4.90;;;3.90;90.30;;;3.54;55.35;102243.41;5200080;28;20064;-86
2022/03/01 04:51:22;;;;;;;13.25;5.30;;;3.90;90.50;;;3.47;55.72;102246.25;5197549;28;20056;-84
2022/03/01 04:53:55;;;;;;;11.80;4.72;;;3.90;90.50;;;3.45;55.58;102251.25;5196360;28;20049;-84
2022/03/01 04:56:27;;;;;;;11.43;4.32;;;3.90;90.50;;;3.45;55.84;102247.75;5196396;28;20125;-84
2022/03/01 04:58:59;;;;;;;17.40;6.72;;;3.90;90.60;;;3.42;55.74;102248.41;5196099;28;20522;-84
2022/03/01 05:01:31;;;;;;;11.85;5.70;;;3.80;90.50;;;3.41;55.37;102246.63;5198041;28;20423;-84
2022/03/01 05:04:03;;;;;;;11.00;5.00;;;3.80;90.50;;;3.44;55.25;102248.53;5198213;28;20053;-87
2022/03/01 05:06:35;;;;;;;10.57;4.93;;;3.80;90.50;;;3.40;55.60;102254.22;5198087;28;20128;-85
2022/03/01 05:09:09;;;;;;;16.65;5.20;;;3.80;90.70;;;3.36;55.71;102253.03;5198148;28;20136;-84
2022/03/01 05:11:41;;;;;;;12.13;5.00;;;3.80;90.70;;;3.35;55.49;102256.41;5198946;28;20054;-84
2022/03/01 05:14:13;;;;;;;14.38;5.10;;;3.80;90.50;;;3.31;55.40;102253.41;5205499;28;20054;-84
2022/03/01 05:16:46;;;;;;;11.13;4.43;;;3.70;90.50;;;3.35;55.35;102261.53;5197287;28;20058;-86
2022/03/01 05:19:18;;;;;;;13.35;4.90;;;3.70;90.40;;;3.28;55.55;102259.22;5192204;28;20539;-83
2022/03/01 05:21:50;;;;;;;12.30;4.90;;;3.70;90.50;;;3.25;55.87;102253.78;5193274;28;20054;-85
2022/03/01 05:24:23;;;;;;;10.75;4.72;;;3.70;90.60;;;3.33;55.93;102246.72;5193163;28;20492;-85
2022/03/01 05:26:55;;;;;;;12.50;6.13;;;3.70;90.90;;;3.37;55.71;102249.69;5193659;28;20128;-87
2022/03/01 05:29:27;;;;;;;11.70;5.32;;;3.70;90.70;;;3.36;55.65;102252.13;5216211;22;20046;-85
2022/03/01 05:32:00;;;;;;;13.70;5.35;;;3.80;90.50;;;3.33;55.27;102281.16;5189880;28;20067;-86
2022/03/01 05:34:32;;;;;;;12.07;4.57;;;3.70;90.20;;;3.29;55.19;102263.59;5209760;28;20049;-86
2022/03/01 05:37:04;;;;;;;12.35;4.97;;;3.70;90.30;;;3.35;55.05;102266.69;5215247;28;20049;-85
2022/03/01 05:39:38;;;;;;;10.48;4.25;;;3.70;90.30;;;3.31;54.92;102272.34;5207360;28;20140;-85
2022/03/01 05:42:10;;;;;;;11.35;4.72;;;3.70;90.20;;;3.25;55.22;102271.81;5193617;28;20042;-86
2022/03/01 05:44:42;;;;;;;12.77;5.28;;;3.70;90.10;;;3.26;55.20;102273.66;5193989;28;20053;-85
2022/03/01 05:47:14;;;;;;;13.63;4.82;;;3.70;90.30;;;3.24;55.43;102273.50;5194228;28;20049;-84
2022/03/01 05:49:46;;;;;;;10.20;4.78;;;3.70;90.20;;;3.12;55.23;102256.03;5193305;28;20057;-85
2022/03/01 05:52:18;;;;;;;11.32;5.32;;;3.70;90.00;;;3.18;55.31;102278.09;5194193;28;20046;-86
2022/03/01 05:54:52;;;;;;;11.63;5.07;;;3.60;90.10;;;3.23;55.37;102270.78;5193186;28;20050;-84
2022/03/01 05:57:27;;;;;;;16.27;7.25;;;3.60;90.20;;;3.16;55.42;102268.44;5193064;28;20049;-85
2022/03/01 06:00:00;;;;;;;16.60;5.40;;;3.60;90.30;;;3.19;55.08;102264.44;5192924;28;20492;-84
2022/03/01 06:02:32;;;;;;;10.63;4.82;;;3.70;90.20;;;3.15;55.33;102267.53;5192865;28;20050;-83
2022/03/01 06:05:04;;;;;;;12.70;4.90;;;3.60;90.20;;;3.17;55.15;102265.09;5192812;28;20054;-87
2022/03/01 06:07:36;;;;;;;11.50;5.03;;;3.60;90.30;;;3.18;55.65;102269.47;5193146;28;20049;-84
2022/03/01 06:10:11;;;;;;;13.93;5.18;;;3.60;90.40;;;3.18;55.33;102278.09;5192484;28;20156;-84
2022/03/01 06:12:43;;;;;;;14.07;5.15;;;3.60;90.30;;;3.17;55.55;102270.25;5192477;28;20052;-85
2022/03/01 06:15:15;;;;;;;15.45;4.93;;;3.60;90.10;;;3.23;55.29;102275.94;5192014;28;20050;-85
2022/03/01 06:17:48;;;;;;;15.25;5.60;;;3.60;90.30;;;3.26;54.64;102276.22;5191773;28;20223;-85
2022/03/01 06:20:20;;;;;;;14.18;4.40;;;3.60;89.80;;;3.26;54.71;102273.66;5190559;28;20056;-85
2022/03/01 06:22:52;;;;;;;17.80;5.50;;;3.60;89.90;;;3.34;54.82;102285.53;5191492;28;20134;-87
2022/03/01 06:25:25;;;;;;;11.45;4.32;;;3.70;89.80;;;3.36;54.55;102277.91;5192789;28;20057;-87
2022/03/01 06:27:57;;;;;;;13.45;4.38;;;3.70;89.20;;;3.42;54.21;102281.03;5192122;28;20046;-87
2022/03/01 06:30:29;;;;;;;13.68;5.15;;;3.70;89.20;;;3.39;54.04;102283.31;5190713;28;20497;-88
2022/03/01 06:33:01;;;;;;;14.52;5.63;;;3.70;88.70;;;3.39;54.02;102284.25;5191987;28;20520;-87
2022/03/01 06:35:33;;;;;;;13.63;4.68;;;3.70;88.50;;;3.44;54.09;102280.38;5192415;28;20057;-88
2022/03/01 06:38:06;;;;;;;15.25;4.70;;;3.70;88.70;;;3.52;54.26;102276.81;5191598;28;20057;-87
2022/03/01 06:40:39;;;;;;;13.85;5.28;;;3.80;88.80;;;3.46;54.03;102291.75;5191612;28;20057;-87
2022/03/01 06:43:11;;;;;;;14.57;4.93;;;3.80;88.00;;;3.45;53.98;102287.34;5191150;28;20060;-89
2022/03/01 06:45:43;;;;;;;16.73;5.13;;;3.80;87.80;;;3.65;53.49;102289.09;5190953;28;20052;-88
2022/03/01 06:48:15;;;;;;;12.43;5.32;;;3.90;87.10;;;3.86;53.24;102264.22;5190474;28;20046;-88
2022/03/01 06:50:47;;;;;;;13.60;5.25;;;4.00;87.40;;;4.38;52.04;102283.19;5191294;28;20140;-87
2022/03/01 06:53:20;;;;;;;14.45;5.22;;;4.40;86.20;;;4.45;51.42;102286.41;5191045;28;20054;-87
2022/03/01 06:55:53;;;;;;;11.65;5.05;;;4.50;85.10;;;4.38;51.29;102289.25;5191509;28;20539;-90
2022/03/01 06:58:25;;;;;;;14.13;4.95;;;4.60;83.50;;;4.26;51.58;102281.38;5195759;28;20056;-78
2022/03/01 07:01:00;;;;;;;14.18;5.30;;;4.60;83.50;;;4.33;51.19;102280.22;5195560;28;20050;-80
2022/03/01 07:03:34;;;;;;;12.38;5.22;;;4.60;82.70;;;4.44;51.37;102266.53;5194055;28;20507;-79
2022/03/01 07:06:06;;;;;;;12.20;4.93;;;4.60;82.30;;;5.04;49.91;102267.13;5192991;28;20088;-79
2022/03/01 07:08:38;;;;;;;12.82;4.40;;;4.90;81.90;;;6.45;47.61;102285.84;5192846;28;20060;-79
2022/03/01 07:11:12;;;;;;;15.20;5.72;;;5.60;79.50;;;7.62;44.03;102270.16;5191937;28;20050;-79
2022/03/01 07:13:44;;;;;;;14.18;5.57;;;6.60;75.20;;;8.23;41.64;102264.00;5193409;28;20442;-79
2022/03/01 07:16:16;;;;;;;12.73;5.53;;;7.40;68.60;;;9.20;40.40;102263.47;5192719;28;20140;-81
2022/03/01 07:18:48;;;;;;;16.55;4.70;;;8.10;66.60;;;10.23;38.41;102278.50;5190983;28;20049;-79
2022/03/01 07:21:20;;;;;;;11.45;5.05;;;8.90;63.80;;;10.49;37.29;102280.94;5192868;28;20046;-81
2022/03/01 07:23:52;;;;;;;12.85;5.50;;;9.40;61.40;;;10.27;37.58;102277.91;5194862;28;20049;-80
2022/03/01 07:26:25;;;;;;;14.57;5.47;;;9.50;60.50;;;10.26;37.35;102281.31;5193558;28;20053;-79
2022/03/01 07:28:57;;;;;;;15.07;5.93;;;9.50;60.60;;;9.74;37.67;102284.22;5184287;28;20052;-79
2022/03/01 07:31:30;;;;;;;14.13;5.80;;;9.30;59.50;;;8.51;39.37;102284.06;5165247;28;20050;-80
2022/03/01 07:34:03;;;;;;;10.82;4.80;;;8.60;59.70;;;7.98;40.38;102282.19;5170781;28;20042;-81
2022/03/01 07:36:35;;;;;;;19.80;6.15;;;8.10;61.10;;;7.88;40.72;102283.25;5170491;28;20523;-80
2022/03/01 07:39:07;;;;;;;13.43;5.72;;;7.90;61.90;;;7.69;41.42;102274.97;5170845;28;20077;-79
2022/03/01 07:41:41;;;;;;;12.77;6.32;;;7.70;62.80;;;7.40;42.28;102277.22;5170756;28;20416;-79
2022/03/01 07:44:13;;;;;;;15.18;5.40;;;7.40;63.50;;;7.00;42.91;102284.75;5171209;28;20516;-80
2022/03/01 07:46:45;;;;;;;13.23;4.90;;;7.10;64.00;;;6.66;43.43;102289.16;5173290;28;20050;-80
2022/03/01 07:49:17;;;;;;;16.45;5.93;;;6.80;65.00;;;6.56;43.93;102291.81;5172003;28;20054;-80
2022/03/01 07:51:49;;;;;;;19.50;7.53;;;6.60;66.00;;;6.40;44.30;102279.44;5173901;28;20050;-79
2022/03/01 07:54:22;;;;;;;17.40;6.80;;;6.50;66.50;;;6.24;44.56;102275.66;5175155;28;20049;-80
2022/03/01 07:56:55;;;;;;;15.38;5.43;;;6.40;67.00;;;6.21;44.44;102278.03;5172032;28;20105;-79
2022/03/01 07:59:27;;;;;;;14.30;5.95;;;6.40;67.40;;;6.14;45.52;102288.72;5167066;28;20116;-79
2022/03/01 08:01:59;;;;;;;13.68;5.28;;;6.20;67.90;;;6.19;45.16;102299.41;5166680;28;20057;-79
2022/03/01 08:04:31;;;;;;;15.68;6.15;;;6.30;68.40;;;6.20;45.03;102283.13;5160578;28;20133;-81
2022/03/01 08:07:04;;;;;;;12.50;4.90;;;6.20;68.50;;;6.25;45.26;102279.16;5162724;28;20058;-81
2022/03/01 08:09:36;;;;;;;15.10;5.45;;;6.20;69.20;;;6.34;45.25;102285.06;5158370;28;20054;-80
2022/03/01 08:12:11;;;;;;;14.32;5.20;;;6.30;69.10;;;6.37;45.02;102274.00;5162728;28;20047;-80
2022/03/01 08:14:43;;;;;;;16.15;6.10;;;6.30;69.10;;;6.20;44.87;102257.22;5159598;28;20045;-79
2022/03/01 08:17:15;;;;;;;11.60;4.63;;;6.20;68.50;;;6.37;45.03;102286.97;5158608;28;20046;-79
2022/03/01 08:19:47;;;;;;;11.93;5.38;;;6.30;68.60;;;6.66;44.47;102292.63;5163083;28;20050;-79
2022/03/01 08:22:19;;;;;;;16.83;5.75;;;6.40;68.60;;;7.24;43.58;102294.31;5164661;28;20062;-78
2022/03/01 08:24:51;;;;;;;13.27;5.53;;;6.70;68.20;;;7.68;42.92;102283.56;5155821;28;20533;-80
2022/03/01 08:27:24;;;;;;;14.35;5.40;;;7.10;67.50;;;8.70;41.81;102298.38;5162863;28;20133;-79
2022/03/01 08:29:56;;;;;;;15.18;5.35;;;7.70;67.20;;;9.62;39.70;102298.19;5160888;28;20047;-80
2022/03/01 08:32:28;;;;;;;15.38;5.70;;;8.40;64.90;;;10.33;37.28;102304.31;5165370;28;20055;-78
2022/03/01 08:35:00;;;;;;;14.65;5.55;;;9.00;61.60;;;10.20;36.94;102306.97;5152343;28;20046;-78
2022/03/01 08:37:32;;;;;;;12.43;4.95;;;9.30;59.60;;;10.29;37.54;102305.84;5156828;28;20051;-80
2022/03/01 08:40:06;;;;;;;14.15;5.35;;;9.40;60.10;;;10.15;36.95;102300.56;5157197;28;20055;-78
2022/03/01 08:42:40;;;;;;;15.80;5.72;;;9.50;58.40;;;9.79;37.18;102311.47;5164899;28;20057;-79
2022/03/01 08:45:12;;;;;;;14.52;5.60;;;9.40;58.30;;;10.35;43.06;102313.13;5150791;28;20061;-79
2022/03/01 08:47:44;;;;;;;14.07;5.18;;;9.80;67.90;;;10.85;37.13;102323.94;5156195;28;20065;-81
2022/03/01 08:50:16;;;;;;;15.43;5.57;;;10.20;58.70;;;11.51;35.79;102314.59;5167857;28;20046;-81
2022/03/01 08:52:49;;;;;;;14.93;5.35;;;10.60;57.50;;;12.33;34.56;102312.94;5168886;28;20055;-80
2022/03/01 08:55:21;;;;;;;15.15;6.35;;;11.20;56.70;;;12.36;33.32;102310.44;5171133;28;20046;-80
2022/03/01 08:57:55;;;;;;;13.00;5.55;;;11.40;54.30;;;12.75;32.94;102308.06;5164268;28;20054;-79
2022/03/01 09:00:28;;;;;;;13.30;5.50;;;11.70;53.50;;;13.05;32.70;102298.22;5171914;28;20046;-80
2022/03/01 09:03:00;;;;;;;14.43;5.80;;;12.10;52.80;;;13.07;32.46;102311.38;5171124;28;20042;-80
2022/03/01 09:05:33;;;;;;;14.50;6.13;;;12.30;52.10;;;12.52;31.88;102300.75;5168420;28;20050;-81
2022/03/01 09:08:06;;;;;;;14.75;6.05;;;12.20;51.00;;;12.23;32.89;102306.31;5170570;28;20043;-78
2022/03/01 09:10:38;;;;;;;13.98;5.40;;;12.00;51.60;;;11.79;33.66;102276.91;5171840;28;20058;-81
2022/03/01 09:13:11;;;;;;;13.32;5.88;;;11.80;52.30;;;11.65;33.62;102303.19;5171515;28;20153;-80
2022/03/01 09:15:43;;;;;;;15.20;5.88;;;11.60;51.90;;;11.57;33.81;102301.88;5171228;28;20053;-81
2022/03/01 09:18:15;;;;;;;18.08;5.55;;;11.50;52.40;;;11.55;34.59;102294.78;5170875;28;20050;-80
2022/03/01 09:20:47;;;;;;;13.73;5.45;;;11.40;53.10;;;11.17;34.20;102295.28;5165885;28;20050;-81
2022/03/01 09:23:19;;;;;;;14.07;6.47;;;11.10;52.50;;;10.50;34.94;102290.59;5161623;28;20528;-81
2022/03/01 09:25:51;;;;;;;14.85;6.47;;;10.60;52.90;;;10.36;36.04;102301.88;5167381;28;20050;-81
2022/03/01 09:28:24;;;;;;;13.52;5.47;;;10.40;55.10;;;10.21;35.73;102290.53;5169618;28;20097;-80
2022/03/01 09:30:56;;;;;;;15.55;5.75;;;10.20;54.10;;;9.93;36.23;102296.69;5170341;28;20081;-80
2022/03/01 09:33:28;;;;;;;12.38;5.43;;;9.90;54.70;;;9.76;36.70;102294.72;5165693;28;20047;-79
2022/03/01 09:36:01;;;;;;;14.55;6.07;;;9.70;55.40;;;9.41;37.14;102283.03;5164283;28;20508;-82
2022/03/01 09:38:33;;;;;;;14.68;5.32;;;9.50;55.90;;;9.39;37.60;102284.63;5168536;28;20057;-78
2022/03/01 09:41:05;;;;;;;14.93;5.63;;;9.30;56.50;;;9.46;37.91;102279.03;5169948;28;20056;-80
2022/03/01 09:43:40;;;;;;;13.55;5.30;;;9.30;56.80;;;9.38;38.29;102276.72;5169869;28;20051;-80
2022/03/01 09:46:12;;;;;;;17.13;5.63;;;9.20;57.10;;;9.23;37.97;102282.75;5170008;28;20496;-80
2022/03/01 09:48:44;;;;;;;11.80;4.93;;;9.10;57.00;;;9.18;38.29;102293.66;5170256;28;20046;-81
2022/03/01 09:51:21;;;;;;;14.15;5.80;;;9.10;57.40;;;9.11;38.17;102307.09;5170126;28;20212;-82
2022/03/01 09:53:54;;;;;;;15.50;6.00;;;9.00;57.30;;;9.06;38.18;102295.47;5170319;28;20133;-80
2022/03/01 09:56:26;;;;;;;16.23;6.00;;;8.90;57.70;;;8.77;38.68;102294.50;5169281;28;20050;-79
2022/03/01 09:59:01;;;;;;;15.52;5.75;;;8.70;57.70;;;8.56;39.58;102306.06;5168578;28;20051;-80
2022/03/01 10:01:33;;;;;;;15.00;4.93;;;8.60;58.10;;;8.48;39.69;102302.06;5163913;28;20050;-80
2022/03/01 10:04:10;;;;;;;13.50;5.45;;;8.50;58.80;;;8.82;49.28;102285.28;5165874;28;20065;-80
2022/03/01 10:06:45;;;;;;;13.75;5.65;;;8.60;75.50;;;9.00;40.22;102272.59;5168221;28;20068;-79
2022/03/01 10:09:19;;;;;;;17.02;6.53;;;8.90;60.00;;;8.90;39.98;102270.19;5168266;28;20408;-79
2022/03/01 10:11:52;;;;;;;15.10;5.88;;;8.90;59.40;;;8.77;39.84;102267.59;5167701;28;20497;-78
2022/03/01 10:14:31;;;;;;;13.57;5.10;;;8.80;59.20;;;8.67;39.81;102268.66;5167588;28;20054;-79
2022/03/01 10:17:12;;;;;;;14.32;5.93;;;8.70;59.30;;;8.56;40.10;102264.47;5166648;28;20144;-80
2022/03/01 10:19:44;;;;;;;20.45;5.57;;;8.70;59.10;;;8.51;39.56;102273.66;5168482;28;20050;-80
2022/03/01 10:22:16;;;;;;;11.57;5.00;;;8.60;59.00;;;8.74;39.93;102269.97;5168561;28;20054;-79
2022/03/01 10:24:49;;;;;;;16.00;5.85;;;8.60;59.60;;;9.20;41.87;102271.25;5168813;28;20054;-81
2022/03/01 10:27:29;;;;;;;12.20;5.72;;;9.00;63.20;;;9.51;39.41;102279.28;5165170;28;20393;-81
2022/03/01 10:30:05;;;;;;;13.60;5.47;;;9.30;60.10;;;9.51;39.44;102264.56;5168511;28;20051;-81
2022/03/01 10:32:37;;;;;;;13.95;3.83;;;9.40;59.60;;;9.92;52.86;102268.84;5171898;28;20134;-79
2022/03/01 10:35:11;;;;;;;14.50;5.03;;;9.60;90.00;;;10.50;41.00;102267.13;5172199;28;20052;-79
2022/03/01 10:37:42;;;;;;;13.50;4.88;;;10.20;63.00;;;10.63;37.77;102271.34;5168117;28;20057;-81
2022/03/01 10:40:19;;;;;;;15.02;5.60;;;10.40;58.10;;;10.72;37.57;102279.69;5172327;28;20046;-82